sensor_id;sensor_type;location;lat;lon;timestamp;P1;durP1;ratioP1;P2;durP2;ratioP2
64791;SDS011;51226;47.504;19.074;2022-11-27T00:01:55;69.75;;;49.08;;
64791;SDS011;51226;47.504;19.074;2022-11-27T00:04:58;68.62;;;48.20;;
64791;SDS011;51226;47.504;19.074;2022-11-27T00:08:00;74.00;;;50.83;;
64791;SDS011;51226;47.504;19.074;2022-11-27T00:11:11;72.57;;;57.03;;
64791;SDS011;51226;47.504;19.074;2022-11-27T00:14:15;75.72;;;53.97;;
64791;SDS011;51226;47.504;19.074;2022-11-27T00:17:19;76.35;;;57.65;;
64791;SDS011;51226;47.504;19.074;2022-11-27T00:20:21;73.62;;;58.85;;
64791;SDS011;51226;47.504;19.074;2022-11-27T00:23:31;79.72;;;61.78;;
64791;SDS011;51226;47.504;19.074;2022-11-27T00:26:34;72.95;;;59.78;;
64791;SDS011;51226;47.504;19.074;2022-11-27T00:29:39;74.90;;;58.83;;
64791;SDS011;51226;47.504;19.074;2022-11-27T00:32:42;77.32;;;59.50;;
64791;SDS011;51226;47.504;19.074;2022-11-27T00:35:45;73.87;;;59.80;;
64791;SDS011;51226;47.504;19.074;2022-11-27T00:38:48;70.12;;;50.45;;
64791;SDS011;51226;47.504;19.074;2022-11-27T00:41:51;73.95;;;51.10;;
64791;SDS011;51226;47.504;19.074;2022-11-27T00:44:53;70.43;;;50.83;;
64791;SDS011;51226;47.504;19.074;2022-11-27T00:47:56;67.25;;;49.28;;
64791;SDS011;51226;47.504;19.074;2022-11-27T00:50:59;68.90;;;48.63;;
64791;SDS011;51226;47.504;19.074;2022-11-27T00:54:03;63.22;;;46.08;;
64791;SDS011;51226;47.504;19.074;2022-11-27T01:00:09;54.53;;;42.20;;
64791;SDS011;51226;47.504;19.074;2022-11-27T01:06:16;53.53;;;39.42;;
64791;SDS011;51226;47.504;19.074;2022-11-27T01:09:19;53.28;;;40.30;;
64791;SDS011;51226;47.504;19.074;2022-11-27T01:12:22;51.65;;;40.78;;
64791;SDS011;51226;47.504;19.074;2022-11-27T01:15:25;50.05;;;38.75;;
64791;SDS011;51226;47.504;19.074;2022-11-27T01:18:29;53.35;;;37.88;;
64791;SDS011;51226;47.504;19.074;2022-11-27T01:21:32;52.00;;;37.92;;
64791;SDS011;51226;47.504;19.074;2022-11-27T01:24:36;50.03;;;41.22;;
64791;SDS011;51226;47.504;19.074;2022-11-27T01:30:43;45.97;;;34.90;;
64791;SDS011;51226;47.504;19.074;2022-11-27T01:33:46;44.67;;;35.20;;
64791;SDS011;51226;47.504;19.074;2022-11-27T01:36:49;46.55;;;36.17;;
64791;SDS011;51226;47.504;19.074;2022-11-27T01:39:52;45.65;;;33.90;;
64791;SDS011;51226;47.504;19.074;2022-11-27T01:42:55;50.40;;;36.50;;
64791;SDS011;51226;47.504;19.074;2022-11-27T01:45:58;47.45;;;35.58;;
64791;SDS011;51226;47.504;19.074;2022-11-27T01:52:11;50.88;;;37.90;;
64791;SDS011;51226;47.504;19.074;2022-11-27T01:55:22;51.22;;;37.08;;
64791;SDS011;51226;47.504;19.074;2022-11-27T01:58:27;48.65;;;39.05;;
64791;SDS011;51226;47.504;19.074;2022-11-27T02:01:32;44.08;;;34.58;;
64791;SDS011;51226;47.504;19.074;2022-11-27T02:04:35;49.38;;;41.08;;
64791;SDS011;51226;47.504;19.074;2022-11-27T02:07:38;47.60;;;36.40;;
64791;SDS011;51226;47.504;19.074;2022-11-27T02:14:06;48.20;;;36.28;;
64791;SDS011;51226;47.504;19.074;2022-11-27T02:20:51;48.35;;;35.67;;
64791;SDS011;51226;47.504;19.074;2022-11-27T02:24:09;45.58;;;34.22;;
64791;SDS011;51226;47.504;19.074;2022-11-27T02:30:46;50.08;;;39.15;;
64791;SDS011;51226;47.504;19.074;2022-11-27T02:33:57;49.45;;;37.28;;
64791;SDS011;51226;47.504;19.074;2022-11-27T02:40:25;44.97;;;33.83;;
64791;SDS011;51226;47.504;19.074;2022-11-27T02:43:32;45.70;;;34.55;;
64791;SDS011;51226;47.504;19.074;2022-11-27T02:46:38;51.47;;;37.58;;
64791;SDS011;51226;47.504;19.074;2022-11-27T02:49:43;49.92;;;41.03;;
64791;SDS011;51226;47.504;19.074;2022-11-27T02:52:48;49.75;;;39.75;;
64791;SDS011;51226;47.504;19.074;2022-11-27T02:55:54;50.05;;;35.90;;
64791;SDS011;51226;47.504;19.074;2022-11-27T02:59:01;48.90;;;35.60;;
64791;SDS011;51226;47.504;19.074;2022-11-27T03:02:09;46.60;;;34.50;;
64791;SDS011;51226;47.504;19.074;2022-11-27T03:05:17;48.83;;;37.22;;
64791;SDS011;51226;47.504;19.074;2022-11-27T03:08:27;50.60;;;35.63;;
64791;SDS011;51226;47.504;19.074;2022-11-27T03:11:38;50.22;;;36.65;;
64791;SDS011;51226;47.504;19.074;2022-11-27T03:14:41;49.63;;;36.33;;
64791;SDS011;51226;47.504;19.074;2022-11-27T03:21:06;52.15;;;36.58;;
64791;SDS011;51226;47.504;19.074;2022-11-27T03:24:17;47.92;;;36.55;;
64791;SDS011;51226;47.504;19.074;2022-11-27T03:27:22;47.50;;;34.25;;
64791;SDS011;51226;47.504;19.074;2022-11-27T03:30:43;49.43;;;35.17;;
64791;SDS011;51226;47.504;19.074;2022-11-27T03:33:46;50.65;;;33.95;;
64791;SDS011;51226;47.504;19.074;2022-11-27T03:36:49;44.50;;;34.65;;
64791;SDS011;51226;47.504;19.074;2022-11-27T03:39:51;47.70;;;35.10;;
64791;SDS011;51226;47.504;19.074;2022-11-27T03:42:57;49.08;;;34.63;;
64791;SDS011;51226;47.504;19.074;2022-11-27T03:46:16;44.85;;;33.67;;
64791;SDS011;51226;47.504;19.074;2022-11-27T03:59:16;44.33;;;32.70;;
64791;SDS011;51226;47.504;19.074;2022-11-27T04:02:29;40.58;;;30.02;;
64791;SDS011;51226;47.504;19.074;2022-11-27T04:05:41;38.70;;;31.25;;
64791;SDS011;51226;47.504;19.074;2022-11-27T04:08:44;39.88;;;29.50;;
64791;SDS011;51226;47.504;19.074;2022-11-27T04:11:48;39.17;;;30.52;;
64791;SDS011;51226;47.504;19.074;2022-11-27T04:14:51;42.00;;;28.80;;
64791;SDS011;51226;47.504;19.074;2022-11-27T04:17:54;38.88;;;29.60;;
64791;SDS011;51226;47.504;19.074;2022-11-27T04:20:56;42.58;;;31.90;;
64791;SDS011;51226;47.504;19.074;2022-11-27T04:24:00;37.20;;;31.08;;
64791;SDS011;51226;47.504;19.074;2022-11-27T04:27:02;38.80;;;31.10;;
64791;SDS011;51226;47.504;19.074;2022-11-27T04:30:05;42.47;;;31.10;;
64791;SDS011;51226;47.504;19.074;2022-11-27T04:33:09;43.28;;;33.05;;
64791;SDS011;51226;47.504;19.074;2022-11-27T04:36:12;44.30;;;31.12;;
64791;SDS011;51226;47.504;19.074;2022-11-27T04:39:14;42.17;;;31.27;;
64791;SDS011;51226;47.504;19.074;2022-11-27T04:42:17;42.75;;;32.05;;
64791;SDS011;51226;47.504;19.074;2022-11-27T04:45:20;40.40;;;31.43;;
64791;SDS011;51226;47.504;19.074;2022-11-27T04:48:23;45.88;;;33.55;;
64791;SDS011;51226;47.504;19.074;2022-11-27T04:51:25;43.93;;;31.67;;
64791;SDS011;51226;47.504;19.074;2022-11-27T04:54:28;46.55;;;38.80;;
64791;SDS011;51226;47.504;19.074;2022-11-27T04:57:31;42.43;;;31.63;;
64791;SDS011;51226;47.504;19.074;2022-11-27T05:00:34;45.10;;;37.45;;
64791;SDS011;51226;47.504;19.074;2022-11-27T05:03:37;44.57;;;32.50;;
64791;SDS011;51226;47.504;19.074;2022-11-27T05:06:40;44.13;;;34.90;;
64791;SDS011;51226;47.504;19.074;2022-11-27T05:09:43;41.88;;;32.97;;
64791;SDS011;51226;47.504;19.074;2022-11-27T05:12:46;46.25;;;34.75;;
64791;SDS011;51226;47.504;19.074;2022-11-27T05:15:48;47.58;;;35.70;;
64791;SDS011;51226;47.504;19.074;2022-11-27T05:18:51;50.72;;;37.20;;
64791;SDS011;51226;47.504;19.074;2022-11-27T05:21:53;48.55;;;37.08;;
64791;SDS011;51226;47.504;19.074;2022-11-27T05:27:59;56.25;;;39.60;;
64791;SDS011;51226;47.504;19.074;2022-11-27T05:31:02;53.28;;;37.97;;
64791;SDS011;51226;47.504;19.074;2022-11-27T05:34:05;55.92;;;39.55;;
64791;SDS011;51226;47.504;19.074;2022-11-27T05:37:08;58.20;;;40.33;;
64791;SDS011;51226;47.504;19.074;2022-11-27T05:40:16;62.90;;;45.17;;
64791;SDS011;51226;47.504;19.074;2022-11-27T05:43:19;60.30;;;44.28;;
64791;SDS011;51226;47.504;19.074;2022-11-27T05:46:21;62.87;;;40.40;;
64791;SDS011;51226;47.504;19.074;2022-11-27T05:52:27;61.78;;;39.65;;
64791;SDS011;51226;47.504;19.074;2022-11-27T05:55:30;59.70;;;38.10;;
64791;SDS011;51226;47.504;19.074;2022-11-27T05:58:33;60.50;;;40.28;;
64791;SDS011;51226;47.504;19.074;2022-11-27T06:01:37;63.95;;;43.17;;
64791;SDS011;51226;47.504;19.074;2022-11-27T06:04:40;62.80;;;39.47;;
64791;SDS011;51226;47.504;19.074;2022-11-27T06:07:43;58.90;;;39.25;;
64791;SDS011;51226;47.504;19.074;2022-11-27T06:10:46;63.80;;;40.95;;
64791;SDS011;51226;47.504;19.074;2022-11-27T06:13:50;73.00;;;48.17;;
64791;SDS011;51226;47.504;19.074;2022-11-27T06:16:53;64.07;;;40.40;;
64791;SDS011;51226;47.504;19.074;2022-11-27T06:19:56;66.60;;;40.25;;
64791;SDS011;51226;47.504;19.074;2022-11-27T06:22:59;64.10;;;41.17;;
64791;SDS011;51226;47.504;19.074;2022-11-27T06:26:18;66.53;;;39.33;;
64791;SDS011;51226;47.504;19.074;2022-11-27T06:29:24;59.20;;;37.92;;
64791;SDS011;51226;47.504;19.074;2022-11-27T06:32:26;57.20;;;37.78;;
64791;SDS011;51226;47.504;19.074;2022-11-27T06:35:29;66.62;;;41.08;;
64791;SDS011;51226;47.504;19.074;2022-11-27T06:38:32;61.97;;;37.42;;
64791;SDS011;51226;47.504;19.074;2022-11-27T06:41:36;67.97;;;44.33;;
64791;SDS011;51226;47.504;19.074;2022-11-27T06:44:39;63.75;;;44.78;;
64791;SDS011;51226;47.504;19.074;2022-11-27T06:47:42;58.63;;;39.90;;
64791;SDS011;51226;47.504;19.074;2022-11-27T06:50:45;60.35;;;39.92;;
64791;SDS011;51226;47.504;19.074;2022-11-27T06:53:48;62.60;;;41.50;;
64791;SDS011;51226;47.504;19.074;2022-11-27T06:56:51;71.70;;;46.25;;
64791;SDS011;51226;47.504;19.074;2022-11-27T06:59:54;62.65;;;40.42;;
64791;SDS011;51226;47.504;19.074;2022-11-27T07:02:57;64.87;;;41.60;;
64791;SDS011;51226;47.504;19.074;2022-11-27T07:06:00;63.28;;;38.20;;
64791;SDS011;51226;47.504;19.074;2022-11-27T07:09:04;60.45;;;39.33;;
64791;SDS011;51226;47.504;19.074;2022-11-27T07:12:08;57.17;;;38.20;;
64791;SDS011;51226;47.504;19.074;2022-11-27T07:15:13;56.92;;;39.10;;
64791;SDS011;51226;47.504;19.074;2022-11-27T07:18:16;63.80;;;37.80;;
64791;SDS011;51226;47.504;19.074;2022-11-27T07:21:19;70.25;;;43.95;;
64791;SDS011;51226;47.504;19.074;2022-11-27T07:24:22;97.30;;;68.22;;
64791;SDS011;51226;47.504;19.074;2022-11-27T07:27:25;82.57;;;52.40;;
64791;SDS011;51226;47.504;19.074;2022-11-27T07:30:28;69.70;;;48.25;;
64791;SDS011;51226;47.504;19.074;2022-11-27T07:33:31;61.78;;;44.45;;
64791;SDS011;51226;47.504;19.074;2022-11-27T07:36:34;56.22;;;37.45;;
64791;SDS011;51226;47.504;19.074;2022-11-27T07:39:36;61.83;;;40.53;;
64791;SDS011;51226;47.504;19.074;2022-11-27T07:42:59;60.85;;;37.80;;
64791;SDS011;51226;47.504;19.074;2022-11-27T07:46:06;57.83;;;36.65;;
64791;SDS011;51226;47.504;19.074;2022-11-27T07:49:13;71.72;;;43.00;;
64791;SDS011;51226;47.504;19.074;2022-11-27T07:52:16;88.70;;;54.28;;
64791;SDS011;51226;47.504;19.074;2022-11-27T07:55:19;65.25;;;44.80;;
64791;SDS011;51226;47.504;19.074;2022-11-27T07:58:22;57.42;;;37.53;;
64791;SDS011;51226;47.504;19.074;2022-11-27T08:01:24;58.70;;;35.10;;
64791;SDS011;51226;47.504;19.074;2022-11-27T08:04:27;59.30;;;40.65;;
64791;SDS011;51226;47.504;19.074;2022-11-27T08:10:34;55.33;;;35.85;;
64791;SDS011;51226;47.504;19.074;2022-11-27T08:13:37;60.78;;;36.92;;
64791;SDS011;51226;47.504;19.074;2022-11-27T08:16:41;64.53;;;36.85;;
64791;SDS011;51226;47.504;19.074;2022-11-27T08:19:43;54.60;;;34.00;;
64791;SDS011;51226;47.504;19.074;2022-11-27T08:22:46;59.10;;;35.45;;
64791;SDS011;51226;47.504;19.074;2022-11-27T08:25:49;56.65;;;32.03;;
64791;SDS011;51226;47.504;19.074;2022-11-27T08:28:52;55.55;;;34.70;;
64791;SDS011;51226;47.504;19.074;2022-11-27T08:31:55;53.50;;;33.53;;
64791;SDS011;51226;47.504;19.074;2022-11-27T08:34:58;54.30;;;32.38;;
64791;SDS011;51226;47.504;19.074;2022-11-27T08:38:01;54.90;;;30.17;;
64791;SDS011;51226;47.504;19.074;2022-11-27T08:41:05;54.63;;;29.30;;
64791;SDS011;51226;47.504;19.074;2022-11-27T08:44:08;54.83;;;34.75;;
64791;SDS011;51226;47.504;19.074;2022-11-27T08:47:11;54.47;;;33.05;;
64791;SDS011;51226;47.504;19.074;2022-11-27T08:50:16;55.22;;;32.65;;
64791;SDS011;51226;47.504;19.074;2022-11-27T08:53:19;54.53;;;30.85;;
64791;SDS011;51226;47.504;19.074;2022-11-27T08:56:22;52.42;;;28.40;;
64791;SDS011;51226;47.504;19.074;2022-11-27T08:59:26;56.08;;;32.10;;
64791;SDS011;51226;47.504;19.074;2022-11-27T09:02:29;54.13;;;34.77;;
64791;SDS011;51226;47.504;19.074;2022-11-27T09:05:32;51.90;;;34.35;;
64791;SDS011;51226;47.504;19.074;2022-11-27T09:08:35;65.97;;;37.67;;
64791;SDS011;51226;47.504;19.074;2022-11-27T09:14:40;59.33;;;31.83;;
64791;SDS011;51226;47.504;19.074;2022-11-27T09:17:44;56.95;;;35.78;;
64791;SDS011;51226;47.504;19.074;2022-11-27T09:20:53;51.17;;;32.53;;
64791;SDS011;51226;47.504;19.074;2022-11-27T09:23:58;55.03;;;33.28;;
64791;SDS011;51226;47.504;19.074;2022-11-27T09:27:02;58.30;;;34.75;;
64791;SDS011;51226;47.504;19.074;2022-11-27T09:30:06;58.90;;;36.75;;
64791;SDS011;51226;47.504;19.074;2022-11-27T09:33:10;63.67;;;38.50;;
64791;SDS011;51226;47.504;19.074;2022-11-27T09:36:14;62.72;;;38.47;;
64791;SDS011;51226;47.504;19.074;2022-11-27T09:39:18;59.05;;;35.95;;
64791;SDS011;51226;47.504;19.074;2022-11-27T09:45:43;62.80;;;33.80;;
64791;SDS011;51226;47.504;19.074;2022-11-27T09:48:59;56.22;;;35.85;;
64791;SDS011;51226;47.504;19.074;2022-11-27T09:52:10;62.88;;;34.85;;
64791;SDS011;51226;47.504;19.074;2022-11-27T09:55:21;59.13;;;35.25;;
64791;SDS011;51226;47.504;19.074;2022-11-27T09:58:46;61.85;;;34.65;;
64791;SDS011;51226;47.504;19.074;2022-11-27T10:01:55;66.50;;;35.60;;
64791;SDS011;51226;47.504;19.074;2022-11-27T10:04:59;63.92;;;35.17;;
64791;SDS011;51226;47.504;19.074;2022-11-27T10:08:28;56.83;;;33.42;;
64791;SDS011;51226;47.504;19.074;2022-11-27T10:21:26;58.50;;;31.23;;
64791;SDS011;51226;47.504;19.074;2022-11-27T10:24:43;65.90;;;36.55;;
64791;SDS011;51226;47.504;19.074;2022-11-27T10:31:13;69.65;;;36.75;;
64791;SDS011;51226;47.504;19.074;2022-11-27T10:34:29;68.90;;;36.35;;
64791;SDS011;51226;47.504;19.074;2022-11-27T10:37:48;63.13;;;37.22;;
64791;SDS011;51226;47.504;19.074;2022-11-27T10:41:13;60.40;;;36.03;;
64791;SDS011;51226;47.504;19.074;2022-11-27T10:44:45;64.20;;;36.22;;
64791;SDS011;51226;47.504;19.074;2022-11-27T10:47:52;84.68;;;48.33;;
64791;SDS011;51226;47.504;19.074;2022-11-27T10:50:55;77.80;;;41.67;;
64791;SDS011;51226;47.504;19.074;2022-11-27T10:53:59;65.72;;;36.63;;
64791;SDS011;51226;47.504;19.074;2022-11-27T11:00:19;69.37;;;37.88;;
64791;SDS011;51226;47.504;19.074;2022-11-27T11:03:24;70.47;;;39.58;;
64791;SDS011;51226;47.504;19.074;2022-11-27T11:06:27;68.78;;;37.10;;
64791;SDS011;51226;47.504;19.074;2022-11-27T11:09:33;65.15;;;36.88;;
64791;SDS011;51226;47.504;19.074;2022-11-27T11:12:37;74.00;;;39.75;;
64791;SDS011;51226;47.504;19.074;2022-11-27T11:19:02;76.68;;;38.75;;
64791;SDS011;51226;47.504;19.074;2022-11-27T11:22:14;75.18;;;39.15;;
64791;SDS011;51226;47.504;19.074;2022-11-27T11:25:19;71.43;;;38.75;;
64791;SDS011;51226;47.504;19.074;2022-11-27T11:28:23;73.62;;;39.33;;
64791;SDS011;51226;47.504;19.074;2022-11-27T11:31:28;78.62;;;40.25;;
64791;SDS011;51226;47.504;19.074;2022-11-27T11:34:40;72.95;;;39.22;;
64791;SDS011;51226;47.504;19.074;2022-11-27T11:37:45;74.28;;;38.72;;
64791;SDS011;51226;47.504;19.074;2022-11-27T11:41:22;78.65;;;40.55;;
64791;SDS011;51226;47.504;19.074;2022-11-27T11:44:23;76.70;;;41.33;;
64791;SDS011;51226;47.504;19.074;2022-11-27T11:47:32;80.57;;;40.72;;
64791;SDS011;51226;47.504;19.074;2022-11-27T11:53:42;75.00;;;38.05;;
64791;SDS011;51226;47.504;19.074;2022-11-27T11:56:54;67.18;;;37.00;;
64791;SDS011;51226;47.504;19.074;2022-11-27T12:00:07;66.47;;;34.22;;
64791;SDS011;51226;47.504;19.074;2022-11-27T12:07:01;64.32;;;33.20;;
64791;SDS011;51226;47.504;19.074;2022-11-27T12:13:48;64.30;;;33.17;;
64791;SDS011;51226;47.504;19.074;2022-11-27T12:16:56;61.97;;;32.53;;
64791;SDS011;51226;47.504;19.074;2022-11-27T12:27:38;55.65;;;30.65;;
64791;SDS011;51226;47.504;19.074;2022-11-27T12:30:24;51.15;;;29.58;;
64791;SDS011;51226;47.504;19.074;2022-11-27T12:43:35;53.28;;;30.58;;
64791;SDS011;51226;47.504;19.074;2022-11-27T12:49:58;54.53;;;29.45;;
64791;SDS011;51226;47.504;19.074;2022-11-27T12:53:14;52.58;;;30.85;;
64791;SDS011;51226;47.504;19.074;2022-11-27T12:56:35;50.00;;;29.90;;
64791;SDS011;51226;47.504;19.074;2022-11-27T12:59:52;45.50;;;27.33;;
64791;SDS011;51226;47.504;19.074;2022-11-27T13:06:09;47.13;;;28.33;;
64791;SDS011;51226;47.504;19.074;2022-11-27T13:09:17;48.30;;;28.12;;
64791;SDS011;51226;47.504;19.074;2022-11-27T13:12:34;50.45;;;28.38;;
64791;SDS011;51226;47.504;19.074;2022-11-27T13:22:08;46.85;;;26.62;;
64791;SDS011;51226;47.504;19.074;2022-11-27T13:25:15;41.97;;;27.45;;
64791;SDS011;51226;47.504;19.074;2022-11-27T13:28:23;46.63;;;25.33;;
64791;SDS011;51226;47.504;19.074;2022-11-27T13:31:45;44.28;;;27.95;;
64791;SDS011;51226;47.504;19.074;2022-11-27T13:34:54;47.53;;;27.80;;
64791;SDS011;51226;47.504;19.074;2022-11-27T13:38:13;48.63;;;28.50;;
64791;SDS011;51226;47.504;19.074;2022-11-27T13:44:42;46.50;;;25.88;;
64791;SDS011;51226;47.504;19.074;2022-11-27T13:47:54;42.35;;;24.52;;
64791;SDS011;51226;47.504;19.074;2022-11-27T13:50:59;44.13;;;27.42;;
64791;SDS011;51226;47.504;19.074;2022-11-27T13:54:07;41.85;;;26.85;;
64791;SDS011;51226;47.504;19.074;2022-11-27T13:57:14;45.72;;;27.05;;
64791;SDS011;51226;47.504;19.074;2022-11-27T14:00:29;45.67;;;27.23;;
64791;SDS011;51226;47.504;19.074;2022-11-27T14:03:43;39.75;;;26.40;;
64791;SDS011;51226;47.504;19.074;2022-11-27T14:09:53;35.63;;;21.10;;
64791;SDS011;51226;47.504;19.074;2022-11-27T14:13:02;42.25;;;25.88;;
64791;SDS011;51226;47.504;19.074;2022-11-27T14:16:28;47.00;;;29.30;;
64791;SDS011;51226;47.504;19.074;2022-11-27T14:19:36;49.85;;;29.25;;
64791;SDS011;51226;47.504;19.074;2022-11-27T14:22:46;49.35;;;27.80;;
64791;SDS011;51226;47.504;19.074;2022-11-27T14:29:18;41.45;;;24.45;;
64791;SDS011;51226;47.504;19.074;2022-11-27T14:32:22;41.78;;;23.85;;
64791;SDS011;51226;47.504;19.074;2022-11-27T14:35:26;40.05;;;23.98;;
64791;SDS011;51226;47.504;19.074;2022-11-27T14:38:30;43.00;;;25.25;;
64791;SDS011;51226;47.504;19.074;2022-11-27T14:41:34;38.17;;;25.42;;
64791;SDS011;51226;47.504;19.074;2022-11-27T14:44:37;39.85;;;25.27;;
64791;SDS011;51226;47.504;19.074;2022-11-27T14:47:44;36.97;;;22.20;;
64791;SDS011;51226;47.504;19.074;2022-11-27T14:50:51;39.45;;;25.17;;
64791;SDS011;51226;47.504;19.074;2022-11-27T14:53:57;40.30;;;25.20;;
64791;SDS011;51226;47.504;19.074;2022-11-27T14:57:04;38.28;;;24.02;;
64791;SDS011;51226;47.504;19.074;2022-11-27T15:03:20;38.00;;;21.30;;
64791;SDS011;51226;47.504;19.074;2022-11-27T15:06:23;33.30;;;19.62;;
64791;SDS011;51226;47.504;19.074;2022-11-27T15:09:28;33.05;;;22.33;;
64791;SDS011;51226;47.504;19.074;2022-11-27T15:12:45;32.95;;;21.65;;
64791;SDS011;51226;47.504;19.074;2022-11-27T15:15:53;32.10;;;20.30;;
64791;SDS011;51226;47.504;19.074;2022-11-27T15:19:01;34.00;;;22.67;;
64791;SDS011;51226;47.504;19.074;2022-11-27T15:22:12;35.28;;;21.83;;
64791;SDS011;51226;47.504;19.074;2022-11-27T15:25:32;33.03;;;20.43;;
64791;SDS011;51226;47.504;19.074;2022-11-27T15:28:41;31.85;;;21.42;;
64791;SDS011;51226;47.504;19.074;2022-11-27T15:31:50;34.65;;;19.70;;
64791;SDS011;51226;47.504;19.074;2022-11-27T15:34:53;28.60;;;18.25;;
64791;SDS011;51226;47.504;19.074;2022-11-27T15:37:57;32.13;;;18.50;;
64791;SDS011;51226;47.504;19.074;2022-11-27T15:41:15;32.20;;;18.83;;
64791;SDS011;51226;47.504;19.074;2022-11-27T15:44:31;28.40;;;17.50;;
64791;SDS011;51226;47.504;19.074;2022-11-27T15:47:35;31.98;;;19.65;;
64791;SDS011;51226;47.504;19.074;2022-11-27T15:50:38;33.28;;;20.65;;
64791;SDS011;51226;47.504;19.074;2022-11-27T15:53:41;31.42;;;17.10;;
64791;SDS011;51226;47.504;19.074;2022-11-27T15:56:44;32.08;;;17.92;;
64791;SDS011;51226;47.504;19.074;2022-11-27T15:59:48;33.70;;;18.12;;
64791;SDS011;51226;47.504;19.074;2022-11-27T16:02:51;29.23;;;16.52;;
64791;SDS011;51226;47.504;19.074;2022-11-27T16:05:55;33.10;;;19.80;;
64791;SDS011;51226;47.504;19.074;2022-11-27T16:08:59;31.67;;;16.77;;
64791;SDS011;51226;47.504;19.074;2022-11-27T16:12:03;30.62;;;19.98;;
64791;SDS011;51226;47.504;19.074;2022-11-27T16:15:06;30.60;;;19.00;;
64791;SDS011;51226;47.504;19.074;2022-11-27T16:18:09;30.58;;;20.30;;
64791;SDS011;51226;47.504;19.074;2022-11-27T16:21:13;38.85;;;22.10;;
64791;SDS011;51226;47.504;19.074;2022-11-27T16:24:18;34.75;;;19.95;;
64791;SDS011;51226;47.504;19.074;2022-11-27T16:27:20;31.55;;;16.60;;
64791;SDS011;51226;47.504;19.074;2022-11-27T16:30:23;32.25;;;19.37;;
64791;SDS011;51226;47.504;19.074;2022-11-27T16:33:28;31.25;;;18.58;;
64791;SDS011;51226;47.504;19.074;2022-11-27T16:36:33;33.05;;;18.52;;
64791;SDS011;51226;47.504;19.074;2022-11-27T16:42:39;28.98;;;16.98;;
64791;SDS011;51226;47.504;19.074;2022-11-27T16:45:41;30.07;;;16.53;;
64791;SDS011;51226;47.504;19.074;2022-11-27T16:48:45;33.42;;;20.67;;
64791;SDS011;51226;47.504;19.074;2022-11-27T16:51:50;29.35;;;20.25;;
64791;SDS011;51226;47.504;19.074;2022-11-27T16:54:53;30.62;;;22.00;;
64791;SDS011;51226;47.504;19.074;2022-11-27T16:57:57;32.45;;;19.92;;
64791;SDS011;51226;47.504;19.074;2022-11-27T17:01:09;31.95;;;19.05;;
64791;SDS011;51226;47.504;19.074;2022-11-27T17:04:17;32.55;;;18.80;;
64791;SDS011;51226;47.504;19.074;2022-11-27T17:07:21;39.83;;;22.73;;
64791;SDS011;51226;47.504;19.074;2022-11-27T17:10:24;38.47;;;19.70;;
64791;SDS011;51226;47.504;19.074;2022-11-27T17:13:27;36.08;;;19.55;;
64791;SDS011;51226;47.504;19.074;2022-11-27T17:16:29;40.20;;;20.63;;
64791;SDS011;51226;47.504;19.074;2022-11-27T17:19:33;38.15;;;21.45;;
64791;SDS011;51226;47.504;19.074;2022-11-27T17:22:36;29.35;;;17.25;;
64791;SDS011;51226;47.504;19.074;2022-11-27T17:25:39;33.17;;;17.60;;
64791;SDS011;51226;47.504;19.074;2022-11-27T17:28:41;31.05;;;17.50;;
64791;SDS011;51226;47.504;19.074;2022-11-27T17:31:45;26.37;;;14.87;;
64791;SDS011;51226;47.504;19.074;2022-11-27T17:34:47;31.52;;;16.37;;
64791;SDS011;51226;47.504;19.074;2022-11-27T17:37:51;27.40;;;16.33;;
64791;SDS011;51226;47.504;19.074;2022-11-27T17:40:57;29.00;;;14.73;;
64791;SDS011;51226;47.504;19.074;2022-11-27T17:44:05;24.55;;;15.32;;
64791;SDS011;51226;47.504;19.074;2022-11-27T17:47:08;31.60;;;19.10;;
64791;SDS011;51226;47.504;19.074;2022-11-27T17:50:12;28.23;;;16.37;;
64791;SDS011;51226;47.504;19.074;2022-11-27T17:53:15;24.53;;;13.93;;
64791;SDS011;51226;47.504;19.074;2022-11-27T17:56:19;27.25;;;15.07;;
64791;SDS011;51226;47.504;19.074;2022-11-27T17:59:23;24.52;;;15.55;;
64791;SDS011;51226;47.504;19.074;2022-11-27T18:02:26;24.23;;;15.15;;
64791;SDS011;51226;47.504;19.074;2022-11-27T18:05:29;25.40;;;13.15;;
64791;SDS011;51226;47.504;19.074;2022-11-27T18:08:33;23.60;;;14.27;;
64791;SDS011;51226;47.504;19.074;2022-11-27T18:11:38;28.55;;;15.65;;
64791;SDS011;51226;47.504;19.074;2022-11-27T18:14:42;27.35;;;17.30;;
64791;SDS011;51226;47.504;19.074;2022-11-27T18:17:45;27.83;;;17.48;;
64791;SDS011;51226;47.504;19.074;2022-11-27T18:20:48;25.88;;;14.60;;
64791;SDS011;51226;47.504;19.074;2022-11-27T18:23:52;24.83;;;15.13;;
64791;SDS011;51226;47.504;19.074;2022-11-27T18:27:17;27.05;;;15.85;;
64791;SDS011;51226;47.504;19.074;2022-11-27T18:30:20;29.02;;;15.48;;
64791;SDS011;51226;47.504;19.074;2022-11-27T18:33:23;20.40;;;13.30;;
64791;SDS011;51226;47.504;19.074;2022-11-27T18:36:26;22.87;;;13.43;;
64791;SDS011;51226;47.504;19.074;2022-11-27T18:39:28;21.85;;;12.88;;
64791;SDS011;51226;47.504;19.074;2022-11-27T18:42:32;25.88;;;14.87;;
64791;SDS011;51226;47.504;19.074;2022-11-27T18:45:36;24.45;;;14.15;;
64791;SDS011;51226;47.504;19.074;2022-11-27T18:48:39;24.52;;;14.52;;
64791;SDS011;51226;47.504;19.074;2022-11-27T18:51:43;30.08;;;15.40;;
64791;SDS011;51226;47.504;19.074;2022-11-27T18:54:46;27.65;;;15.52;;
64791;SDS011;51226;47.504;19.074;2022-11-27T18:57:49;28.50;;;16.25;;
64791;SDS011;51226;47.504;19.074;2022-11-27T19:00:52;32.60;;;19.80;;
64791;SDS011;51226;47.504;19.074;2022-11-27T19:03:59;32.92;;;19.60;;
64791;SDS011;51226;47.504;19.074;2022-11-27T19:07:03;30.85;;;19.58;;
64791;SDS011;51226;47.504;19.074;2022-11-27T19:10:06;40.45;;;19.58;;
64791;SDS011;51226;47.504;19.074;2022-11-27T19:13:09;39.45;;;23.35;;
64791;SDS011;51226;47.504;19.074;2022-11-27T19:16:19;40.60;;;21.77;;
64791;SDS011;51226;47.504;19.074;2022-11-27T19:19:25;39.08;;;22.08;;
64791;SDS011;51226;47.504;19.074;2022-11-27T19:22:48;40.85;;;23.50;;
64791;SDS011;51226;47.504;19.074;2022-11-27T19:25:51;42.62;;;22.45;;
64791;SDS011;51226;47.504;19.074;2022-11-27T19:28:55;47.90;;;24.70;;
64791;SDS011;51226;47.504;19.074;2022-11-27T19:31:59;47.35;;;28.25;;
64791;SDS011;51226;47.504;19.074;2022-11-27T19:35:02;49.05;;;25.27;;
64791;SDS011;51226;47.504;19.074;2022-11-27T19:38:09;47.33;;;26.12;;
64791;SDS011;51226;47.504;19.074;2022-11-27T19:41:15;45.53;;;24.40;;
64791;SDS011;51226;47.504;19.074;2022-11-27T19:44:19;48.17;;;24.95;;
64791;SDS011;51226;47.504;19.074;2022-11-27T19:47:22;49.55;;;26.00;;
64791;SDS011;51226;47.504;19.074;2022-11-27T19:50:25;49.88;;;25.37;;
64791;SDS011;51226;47.504;19.074;2022-11-27T19:53:28;55.60;;;25.83;;
64791;SDS011;51226;47.504;19.074;2022-11-27T19:59:35;48.58;;;26.62;;
64791;SDS011;51226;47.504;19.074;2022-11-27T20:02:43;57.35;;;30.95;;
64791;SDS011;51226;47.504;19.074;2022-11-27T20:05:46;55.33;;;28.70;;